Time;durP1;ratioP1;P1;durP2;ratioP2;P2;SDS_P1;SDS_P2;PMS_P1;PMS_P2;Temp;Humidity;BMP_temperature;BMP_pressure;BME280_temperature;BME280_humidity;BME280_pressure;Samples;Min_cycle;Max_cycle;Signal;HPM_P1;HPM_P2
2020/12/13 00:00:09;;;;;;;53.47;26.20;;;;;;;0.82;86.54;99532.07;126639;1098;104529;-78
2020/12/13 00:02:54;;;;;;;52.23;26.55;;;;;;;0.81;86.72;99538.06;126497;1093;104847;-78
2020/12/13 00:05:21;;;;;;;52.50;27.20;;;;;;;0.79;86.96;99545.77;126505;1099;104385;-78
2020/12/13 00:07:50;;;;;;;57.27;26.23;;;;;;;0.78;86.53;99538.08;126370;1093;104430;-78
2020/12/13 00:10:18;;;;;;;57.30;27.60;;;;;;;0.77;86.62;99536.37;126491;1093;105669;-78
2020/12/13 00:12:45;;;;;;;52.97;27.17;;;;;;;0.77;86.89;99541.52;126451;1100;104487;-78
2020/12/13 00:15:12;;;;;;;54.10;27.80;;;;;;;0.76;86.98;99542.38;126614;1098;104443;-78
2020/12/13 00:17:40;;;;;;;53.48;27.48;;;;;;;0.75;86.97;99548.37;126601;1093;104657;-78
2020/12/13 00:20:07;;;;;;;56.13;29.03;;;;;;;0.75;86.86;99545.80;126631;1093;104394;-78
2020/12/13 00:22:35;;;;;;;55.75;27.65;;;;;;;0.74;87.08;99549.23;126357;1093;104477;-78
2020/12/13 00:25:03;;;;;;;57.88;28.52;;;;;;;0.74;87.24;99555.22;126695;1093;104384;-78
2020/12/13 00:27:30;;;;;;;58.83;28.93;;;;;;;0.75;87.31;99546.66;126572;1093;104730;-79
2020/12/13 00:29:57;;;;;;;60.50;29.33;;;;;;;0.72;87.37;99549.23;126477;1100;104372;-78
2020/12/13 00:32:29;;;;;;;55.13;29.70;;;;;;;0.73;87.56;99550.09;126344;1098;104998;-78
2020/12/13 00:34:57;;;;;;;56.90;29.23;;;;;;;0.72;87.76;99550.92;126759;1093;104957;-78
2020/12/13 00:37:26;;;;;;;64.23;30.60;;;;;;;0.72;87.24;99548.35;126636;1093;102931;-78
2020/12/13 00:39:54;;;;;;;59.60;30.10;;;;;;;0.73;87.41;99550.09;126677;1093;104525;-77
2020/12/13 00:42:21;;;;;;;58.67;29.00;;;;;;;0.73;87.37;99555.22;126436;1093;104455;-78
2020/12/13 00:44:49;;;;;;;59.57;29.00;;;;;;;0.73;87.51;99560.36;126477;1098;104452;-78
2020/12/13 00:47:16;;;;;;;57.30;30.10;;;;;;;0.74;87.64;99554.36;126508;1100;104608;-78
2020/12/13 00:49:43;;;;;;;58.57;29.17;;;;;;;0.75;87.55;99549.22;126618;1093;104525;-78
2020/12/13 00:52:11;;;;;;;64.20;30.50;;;;;;;0.77;87.86;99562.05;126452;1100;104426;-78
2020/12/13 00:54:38;;;;;;;60.93;29.43;;;;;;;0.78;87.34;99558.62;126350;1100;104526;-78
2020/12/13 00:57:06;;;;;;;57.80;28.47;;;;;;;0.77;87.47;99562.05;126454;1093;104551;-78
2020/12/13 00:59:33;;;;;;;54.45;28.90;;;;;;;0.78;87.38;99558.62;126591;1093;103622;-78
2020/12/13 01:02:00;;;;;;;56.43;29.13;;;;;;;0.78;87.30;99556.05;126701;1098;104461;-78
2020/12/13 01:04:27;;;;;;;58.77;29.07;;;;;;;0.78;87.46;99563.75;126503;1093;104595;-78
2020/12/13 01:06:55;;;;;;;55.93;28.63;;;;;;;0.79;87.26;99557.76;126513;1093;104461;-77
2020/12/13 01:09:22;;;;;;;58.90;30.80;;;;;;;0.80;87.47;99560.31;126436;1098;102561;-78
2020/12/13 01:11:49;;;;;;;56.40;28.80;;;;;;;0.82;87.31;99568.01;126474;1093;104385;-77
2020/12/13 01:14:17;;;;;;;57.00;29.37;;;;;;;0.83;87.69;99573.13;126618;1093;104372;-78
2020/12/13 01:16:44;;;;;;;53.63;28.23;;;;;;;0.84;87.06;99573.98;126456;1100;104420;-78
2020/12/13 01:19:11;;;;;;;53.53;27.97;;;;;;;0.84;87.24;99568.85;126517;1093;104448;-78
2020/12/13 01:21:38;;;;;;;58.60;30.33;;;;;;;0.83;87.31;99567.15;126671;1093;104427;-77
2020/12/13 01:24:05;;;;;;;56.27;27.30;;;;;;;0.82;87.26;99565.44;126504;1093;105550;-77
2020/12/13 01:26:33;;;;;;;55.93;28.50;;;;;;;0.82;87.25;99574.00;126416;1100;104551;-78
2020/12/13 01:29:00;;;;;;;64.75;30.82;;;;;;;0.81;87.09;99574.00;126753;1098;106591;-77
2020/12/13 01:31:28;;;;;;;53.77;29.50;;;;;;;0.82;87.61;99573.14;126656;1093;104442;-78
2020/12/13 01:33:56;;;;;;;53.77;27.00;;;;;;;0.83;87.28;99575.70;126675;1098;104373;-78
2020/12/13 01:36:24;;;;;;;55.90;28.27;;;;;;;0.84;87.19;99573.98;126530;1093;104910;-79
2020/12/13 01:38:52;;;;;;;56.00;28.70;;;;;;;0.85;87.25;99575.69;126435;1095;104263;-78
2020/12/13 01:41:21;;;;;;;56.80;28.23;;;;;;;0.87;87.07;99576.53;126372;1100;104397;-78
2020/12/13 01:44:01;;;;;;;54.95;28.30;;;;;;;0.90;87.28;99579.13;126627;1098;104513;-78
2020/12/13 01:46:28;;;;;;;60.83;28.23;;;;;;;0.92;87.40;99581.67;126451;1098;104548;-78
2020/12/13 01:49:07;;;;;;;55.53;27.97;;;;;;;0.93;87.31;99573.11;126718;1093;103262;-78
2020/12/13 01:54:26;;;;;;;53.13;27.40;;;;;;;0.97;87.25;99580.79;126723;1093;104263;-78
2020/12/13 01:56:56;;;;;;;52.13;27.50;;;;;;;0.97;87.43;99583.36;126404;1093;104470;-78
2020/12/13 01:59:30;;;;;;;52.60;27.17;;;;;;;0.99;87.34;99584.20;126673;1093;104487;-78
2020/12/13 02:02:04;;;;;;;51.90;27.20;;;;;;;0.98;87.31;99579.92;126525;1093;104698;-77
2020/12/13 02:04:37;;;;;;;48.90;26.00;;;;;;;0.97;87.32;99570.52;126656;1093;104468;-77
2020/12/13 02:07:04;;;;;;;52.07;26.77;;;;;;;0.98;87.27;99582.50;126383;1099;104416;-77
2020/12/13 02:09:32;;;;;;;50.57;26.40;;;;;;;0.99;87.26;99576.50;126672;1100;104438;-78
2020/12/13 02:12:00;;;;;;;49.30;26.53;;;;;;;1.00;87.22;99575.64;126559;1098;104369;-77
2020/12/13 02:14:27;;;;;;;50.27;26.57;;;;;;;1.03;87.30;99583.32;126617;1093;104498;-77
2020/12/13 02:16:54;;;;;;;44.63;25.50;;;;;;;1.04;87.45;99585.03;126505;1093;104430;-76
2020/12/13 02:19:22;;;;;;;43.70;25.43;;;;;;;1.03;87.02;99587.60;126424;1098;104455;-78
2020/12/13 02:21:51;;;;;;;46.20;24.50;;;;;;;1.03;87.01;99588.45;126543;1098;104426;-78
2020/12/13 02:24:19;;;;;;;46.17;24.57;;;;;;;1.03;87.02;99585.89;126658;1098;104535;-78
2020/12/13 02:26:47;;;;;;;48.17;25.77;;;;;;;1.05;87.25;99585.88;126596;1092;104582;-78
2020/12/13 02:29:16;;;;;;;43.17;24.13;;;;;;;1.06;86.64;99585.88;126456;1093;104336;-77
2020/12/13 02:31:44;;;;;;;46.57;24.73;;;;;;;1.07;87.00;99590.14;126314;1093;104430;-78
2020/12/13 02:34:12;;;;;;;47.40;24.77;;;;;;;1.07;86.99;99584.16;126700;1093;104458;-78
2020/12/13 02:36:39;;;;;;;47.90;24.70;;;;;;;1.08;87.17;99584.18;126510;1093;104551;-78
2020/12/13 02:39:08;;;;;;;44.73;23.57;;;;;;;1.10;86.82;99587.59;126641;1098;104522;-78
2020/12/13 02:41:35;;;;;;;44.07;24.67;;;;;;;1.13;87.06;99586.72;126718;1093;104350;-77
2020/12/13 02:44:03;;;;;;;43.87;23.87;;;;;;;1.17;87.11;99588.41;126313;1098;104526;-78
2020/12/13 02:46:30;;;;;;;40.57;21.80;;;;;;;1.20;86.78;99599.51;126657;1098;105539;-78
2020/12/13 02:48:58;;;;;;;43.97;23.07;;;;;;;1.18;86.46;99596.09;126572;1093;104505;-78
2020/12/13 02:51:26;;;;;;;40.93;21.30;;;;;;;1.18;86.02;99596.09;126400;1093;104477;-78
2020/12/13 02:53:53;;;;;;;40.13;23.23;;;;;;;1.15;86.54;99595.27;126590;1098;104397;-77
2020/12/13 02:56:21;;;;;;;40.83;22.07;;;;;;;1.16;86.57;99595.25;126490;1093;104435;-77
2020/12/13 02:58:48;;;;;;;41.10;22.40;;;;;;;1.16;86.53;99597.83;126561;1098;104417;-78
2020/12/13 03:01:15;;;;;;;40.53;22.53;;;;;;;1.17;86.88;99598.67;126470;1099;104500;-78
2020/12/13 03:03:42;;;;;;;38.98;21.62;;;;;;;1.16;86.97;99604.67;126327;1098;104515;-79
2020/12/13 03:06:10;;;;;;;39.27;21.60;;;;;;;1.17;86.45;99609.80;126614;1099;104488;-77
2020/12/13 03:08:37;;;;;;;41.90;21.43;;;;;;;1.14;86.80;99604.69;126568;1093;103055;-79
2020/12/13 03:11:04;;;;;;;36.67;21.30;;;;;;;1.13;86.78;99602.98;126531;1094;104478;-77
2020/12/13 03:13:31;;;;;;;32.00;19.33;;;;;;;1.11;86.49;99612.41;126596;1098;104577;-78
2020/12/13 03:15:58;;;;;;;34.83;19.03;;;;;;;1.10;86.82;99605.56;126445;1099;104491;-79
2020/12/13 03:18:26;;;;;;;32.83;18.47;;;;;;;1.08;86.58;99614.14;126603;1093;104493;-77
2020/12/13 03:20:53;;;;;;;31.70;18.17;;;;;;;1.04;86.73;99610.70;126619;1098;104567;-78
2020/12/13 03:23:20;;;;;;;33.40;19.07;;;;;;;1.01;87.07;99612.44;126678;1098;104520;-78
2020/12/13 03:25:49;;;;;;;32.20;19.33;;;;;;;1.01;86.89;99612.44;126651;1093;103262;-78
2020/12/13 03:28:16;;;;;;;31.60;17.57;;;;;;;1.00;86.85;99621.86;126657;1093;104570;-78
2020/12/13 03:30:43;;;;;;;32.47;19.07;;;;;;;1.02;86.72;99624.41;126603;1098;104443;-78
2020/12/13 03:33:11;;;;;;;33.83;18.23;;;;;;;1.02;87.26;99632.97;126451;1093;104452;-78
2020/12/13 03:35:38;;;;;;;28.80;17.07;;;;;;;1.02;87.01;99632.97;126568;1093;104183;-78
2020/12/13 03:38:05;;;;;;;29.57;17.27;;;;;;;1.01;86.75;99627.84;126667;1093;104468;-78
2020/12/13 03:40:32;;;;;;;29.43;16.80;;;;;;;1.01;86.82;99625.28;126593;1093;104580;-77
2020/12/13 03:43:00;;;;;;;26.83;15.60;;;;;;;1.00;86.88;99634.70;126437;1096;104432;-78
2020/12/13 03:45:27;;;;;;;27.93;15.47;;;;;;;0.99;87.15;99634.70;126374;1096;102833;-78
2020/12/13 03:47:54;;;;;;;27.97;15.80;;;;;;;0.98;87.12;99636.42;126721;1093;104525;-77
2020/12/13 03:50:21;;;;;;;23.70;14.50;;;;;;;0.97;87.14;99636.42;126556;1093;104514;-78
2020/12/13 03:52:49;;;;;;;25.97;15.97;;;;;;;0.95;87.29;99644.13;126667;1098;104359;-77
2020/12/13 03:55:17;;;;;;;26.30;14.87;;;;;;;0.91;87.27;99642.44;126636;1093;104452;-78
2020/12/13 03:57:44;;;;;;;27.83;15.70;;;;;;;0.90;87.29;99641.59;126620;1098;104515;-78
2020/12/13 04:00:11;;;;;;;26.23;15.83;;;;;;;0.91;86.99;99647.58;126569;1093;104423;-77
2020/12/13 04:02:39;;;;;;;26.42;15.90;;;;;;;0.91;87.32;99645.01;126452;1093;104507;-77
2020/12/13 04:05:06;;;;;;;24.77;15.37;;;;;;;0.91;87.22;99637.31;126343;1092;104413;-77
2020/12/13 04:07:33;;;;;;;27.33;16.00;;;;;;;0.90;87.26;99639.02;126705;1093;104432;-78
2020/12/13 04:10:00;;;;;;;25.05;15.43;;;;;;;0.91;87.35;99637.31;126408;1096;104522;-78
2020/12/13 04:12:27;;;;;;;27.33;15.80;;;;;;;0.94;87.26;99637.30;126313;1099;104507;-78
2020/12/13 04:14:55;;;;;;;28.53;16.33;;;;;;;0.95;87.31;99646.70;126722;1098;104583;-79
2020/12/13 04:17:22;;;;;;;28.73;16.30;;;;;;;0.96;87.35;99645.84;126654;1093;104443;-78
2020/12/13 04:19:50;;;;;;;24.87;15.43;;;;;;;0.99;87.31;99647.54;126601;1093;104449;-79
2020/12/13 04:22:17;;;;;;;25.35;15.30;;;;;;;0.99;87.04;99650.96;126540;1093;104542;-77
2020/12/13 04:24:44;;;;;;;26.40;15.17;;;;;;;1.03;87.14;99656.94;126431;1095;104386;-78
2020/12/13 04:27:11;;;;;;;26.17;14.77;;;;;;;1.03;87.09;99652.66;126316;1100;104459;-78
2020/12/13 04:29:38;;;;;;;25.75;15.43;;;;;;;1.05;87.02;99645.80;126453;1096;104436;-79
2020/12/13 04:32:06;;;;;;;26.80;14.83;;;;;;;1.06;87.23;99647.50;126592;1099;103031;-78
2020/12/13 04:34:33;;;;;;;24.30;14.10;;;;;;;1.06;86.97;99647.50;126369;1100;104420;-78
2020/12/13 04:37:00;;;;;;;26.03;14.93;;;;;;;1.06;86.48;99647.50;126340;1100;104420;-78
2020/12/13 04:39:28;;;;;;;27.83;15.43;;;;;;;1.08;86.95;99645.81;126738;1098;104532;-78
2020/12/13 04:41:55;;;;;;;26.43;15.37;;;;;;;1.09;87.03;99649.23;126508;1093;104551;-78
2020/12/13 04:44:23;;;;;;;30.05;16.75;;;;;;;1.08;86.55;99653.52;126441;1099;104563;-78
2020/12/13 04:46:53;;;;;;;28.13;16.17;;;;;;;1.06;86.42;99644.94;126373;1093;104394;-78
2020/12/13 04:49:24;;;;;;;28.20;17.10;;;;;;;1.05;86.44;99650.08;126543;1100;104554;-78
2020/12/13 04:51:52;;;;;;;28.90;17.17;;;;;;;1.02;86.35;99645.81;126459;1093;104391;-79
2020/12/13 04:54:22;;;;;;;27.40;17.23;;;;;;;1.01;86.71;99646.67;126691;1093;104375;-79
2020/12/13 04:56:51;;;;;;;29.53;16.70;;;;;;;0.99;86.73;99653.53;126446;1099;104647;-78
2020/12/13 04:59:18;;;;;;;29.73;17.50;;;;;;;0.98;86.63;99650.97;126608;1093;104404;-77
2020/12/13 05:01:47;;;;;;;28.33;17.67;;;;;;;0.97;86.63;99656.97;126478;1093;104579;-78
2020/12/13 05:04:16;;;;;;;24.57;14.87;;;;;;;0.96;86.62;99645.84;126364;1094;104484;-78
2020/12/13 05:06:45;;;;;;;29.07;16.80;;;;;;;0.96;86.62;99658.68;126681;1098;104487;-78
2020/12/13 05:09:14;;;;;;;28.67;16.33;;;;;;;0.96;86.57;99652.69;126527;1093;104542;-78
2020/12/13 05:11:43;;;;;;;25.33;16.50;;;;;;;0.96;86.62;99655.26;126684;1098;104388;-79
2020/12/13 05:14:10;;;;;;;25.97;16.13;;;;;;;0.95;86.55;99658.69;126519;1093;104372;-78
2020/12/13 05:16:38;;;;;;;26.37;15.83;;;;;;;0.91;86.27;99657.84;126664;1098;104490;-79
2020/12/13 05:19:07;;;;;;;24.03;15.23;;;;;;;0.91;86.28;99662.98;126637;1099;104411;-78
2020/12/13 05:21:36;;;;;;;29.55;15.60;;;;;;;0.91;86.55;99660.41;126618;1093;104600;-78
2020/12/13 05:24:04;;;;;;;26.57;15.83;;;;;;;0.95;86.82;99664.67;126635;1093;104363;-79
2020/12/13 05:26:32;;;;;;;23.23;13.87;;;;;;;0.96;86.63;99666.38;126650;1098;104514;-78
2020/12/13 05:29:05;;;;;;;21.67;13.63;;;;;;;0.98;86.42;99674.93;126583;1099;104526;-78
2020/12/13 05:31:40;;;;;;;21.50;13.37;;;;;;;0.96;86.23;99668.95;126480;1100;103281;-79
2020/12/13 05:34:15;;;;;;;22.00;14.15;;;;;;;0.96;86.43;99676.66;126554;1093;104437;-79
2020/12/13 05:36:45;;;;;;;19.82;12.40;;;;;;;0.97;86.40;99673.23;126740;1093;104432;-79
2020/12/13 05:39:13;;;;;;;21.70;12.93;;;;;;;0.96;86.16;99675.80;126609;1093;104394;-78
2020/12/13 05:41:40;;;;;;;20.17;13.53;;;;;;;0.97;86.39;99678.36;126631;1098;104471;-79
2020/12/13 05:51:58;;;;;;;21.67;14.13;;;;;;;0.97;86.56;99688.63;126702;1093;104563;-79
2020/12/13 05:54:29;;;;;;;23.60;15.25;;;;;;;0.96;86.76;99699.77;126390;1093;104419;-78
2020/12/13 05:57:02;;;;;;;22.33;14.40;;;;;;;0.93;86.71;99686.94;126716;1093;104497;-78
2020/12/13 05:59:31;;;;;;;24.73;15.43;;;;;;;0.92;86.12;99687.80;126677;1094;104793;-78
2020/12/13 06:02:00;;;;;;;20.23;13.83;;;;;;;0.92;86.51;99685.23;126496;1099;104215;-78
2020/12/13 06:04:33;;;;;;;21.53;14.73;;;;;;;0.92;86.33;99684.38;126545;1098;104491;-78
2020/12/13 06:07:03;;;;;;;23.17;15.13;;;;;;;0.90;86.49;99697.22;126339;1100;104346;-78
2020/12/13 06:09:38;;;;;;;24.90;16.23;;;;;;;0.89;86.63;99696.33;126465;1098;104528;-79
2020/12/13 06:12:08;;;;;;;20.03;13.93;;;;;;;0.87;86.52;99702.33;126294;1093;104423;-78
2020/12/13 06:14:37;;;;;;;20.27;14.20;;;;;;;0.85;86.42;99698.91;126409;1100;104286;-78
2020/12/13 06:17:04;;;;;;;20.83;14.20;;;;;;;0.84;86.45;99705.77;126370;1093;104494;-78
2020/12/13 06:19:33;;;;;;;21.53;14.63;;;;;;;0.83;86.51;99706.62;126680;1093;101919;-78
2020/12/13 06:22:03;;;;;;;20.57;13.17;;;;;;;0.85;86.42;99712.60;126566;1093;104564;-78
2020/12/13 06:24:30;;;;;;;18.10;12.13;;;;;;;0.84;86.18;99718.59;126464;1099;104475;-78
2020/12/13 06:26:59;;;;;;;18.83;11.70;;;;;;;0.82;86.16;99710.05;126599;1093;104398;-78
2020/12/13 06:29:27;;;;;;;18.53;11.83;;;;;;;0.84;86.31;99713.47;126717;1098;104547;-78
2020/12/13 06:31:55;;;;;;;16.13;11.47;;;;;;;0.86;86.31;99722.02;126427;1093;104436;-77
2020/12/13 06:34:22;;;;;;;19.67;12.30;;;;;;;0.90;86.29;99722.89;126767;1099;104560;-78
2020/12/13 06:36:52;;;;;;;16.37;11.33;;;;;;;0.94;86.29;99722.02;126618;1093;104465;-78
2020/12/13 06:39:19;;;;;;;19.80;12.27;;;;;;;0.97;86.19;99724.58;126683;1093;104317;-77
2020/12/13 06:41:55;;;;;;;19.17;12.60;;;;;;;0.97;85.66;99733.99;126404;1093;105352;-78
2020/12/13 06:44:22;;;;;;;21.60;13.33;;;;;;;0.94;85.67;99732.30;126642;1093;104500;-78
2020/12/13 06:46:50;;;;;;;22.03;13.37;;;;;;;0.97;85.78;99739.12;126338;1093;104856;-77
2020/12/13 06:49:18;;;;;;;20.97;14.03;;;;;;;0.99;85.99;99743.40;126638;1098;105331;-78
2020/12/13 06:51:47;;;;;;;25.33;16.40;;;;;;;1.00;85.73;99744.25;126347;1093;104379;-78
2020/12/13 06:54:17;;;;;;;24.37;14.57;;;;;;;0.99;85.82;99747.68;126595;1098;104343;-78
2020/12/13 06:56:47;;;;;;;26.87;16.10;;;;;;;0.98;85.34;99751.96;126413;1093;104375;-79
2020/12/13 06:59:19;;;;;;;28.33;17.50;;;;;;;0.98;85.18;99757.09;126690;1100;104586;-78
2020/12/13 07:01:47;;;;;;;27.00;17.33;;;;;;;0.97;85.37;99755.39;126734;1093;104400;-78
2020/12/13 07:04:21;;;;;;;28.13;17.03;;;;;;;0.95;85.33;99762.24;126485;1093;104436;-78
2020/12/13 07:06:56;;;;;;;30.00;17.20;;;;;;;0.94;85.17;99755.40;126647;1093;104586;-79
2020/12/13 07:09:24;;;;;;;31.33;18.17;;;;;;;0.94;85.25;99765.67;126611;1098;104474;-79
2020/12/13 07:11:52;;;;;;;36.13;21.03;;;;;;;0.95;85.22;99769.09;126712;1098;104544;-78
2020/12/13 07:14:23;;;;;;;38.60;21.30;;;;;;;0.92;85.29;99774.23;126585;1093;104442;-78
2020/12/13 07:17:27;;;;;;;36.50;20.65;;;;;;;0.91;85.35;99755.41;126535;1099;104221;-78
2020/12/13 07:19:55;;;;;;;35.80;20.77;;;;;;;0.93;85.42;99774.23;126647;1094;104427;-78
2020/12/13 07:22:22;;;;;;;38.87;22.03;;;;;;;0.94;85.31;99764.81;126673;1093;104561;-78
2020/12/13 07:24:49;;;;;;;36.53;21.10;;;;;;;0.94;85.48;99770.80;126535;1093;104885;-78
2020/12/13 07:27:20;;;;;;;36.43;20.43;;;;;;;0.97;85.84;99769.94;126674;1093;104676;-78
2020/12/13 07:29:47;;;;;;;39.53;22.83;;;;;;;0.96;85.29;99769.09;126402;1093;108148;-79
2020/12/13 07:32:14;;;;;;;42.30;22.97;;;;;;;0.98;85.44;99767.38;126704;1093;106183;-78
2020/12/13 07:34:41;;;;;;;41.13;21.97;;;;;;;0.99;85.50;99766.52;126577;1094;101956;-78
2020/12/13 07:37:13;;;;;;;41.70;23.07;;;;;;;0.98;85.05;99767.38;126479;1099;104583;-79
2020/12/13 07:39:41;;;;;;;42.20;22.40;;;;;;;1.01;85.06;99777.63;126667;1093;104349;-79
2020/12/13 07:42:09;;;;;;;41.53;23.13;;;;;;;1.01;85.30;99777.63;126472;1099;104529;-79
2020/12/13 07:44:37;;;;;;;38.90;23.07;;;;;;;1.04;85.28;99787.04;126422;1093;104380;-79
2020/12/13 07:47:04;;;;;;;41.53;22.93;;;;;;;1.02;84.67;99784.48;126666;1093;104388;-78
2020/12/13 07:49:32;;;;;;;38.10;21.73;;;;;;;1.02;84.72;99794.75;126647;1098;103284;-78
2020/12/13 07:51:59;;;;;;;39.93;22.50;;;;;;;0.99;84.82;99789.63;126443;1098;104426;-78
2020/12/13 07:54:29;;;;;;;43.35;22.40;;;;;;;0.97;84.82;99796.47;126386;1093;105292;-78
2020/12/13 07:57:15;;;;;;;38.50;21.17;;;;;;;0.95;84.68;99803.33;126703;1093;104400;-79
2020/12/13 07:59:43;;;;;;;39.37;21.87;;;;;;;0.95;85.16;99803.33;126439;1093;104526;-79
2020/12/13 08:02:11;;;;;;;35.93;21.03;;;;;;;0.95;84.43;99813.59;126618;1093;104529;-79
2020/12/13 08:04:41;;;;;;;35.47;19.33;;;;;;;0.93;84.23;99811.89;126565;1093;103707;-79
2020/12/13 08:07:13;;;;;;;29.07;17.07;;;;;;;0.93;84.39;99812.75;126660;1093;104416;-78
2020/12/13 08:09:42;;;;;;;34.70;19.55;;;;;;;0.94;84.21;99811.89;126558;1093;104449;-79
2020/12/13 08:12:11;;;;;;;35.43;19.97;;;;;;;0.96;84.20;99815.30;126770;1098;104811;-77
2020/12/13 08:14:38;;;;;;;35.57;20.10;;;;;;;0.97;84.27;99822.16;126699;1098;103408;-77
2020/12/13 08:17:06;;;;;;;33.77;18.70;;;;;;;0.99;84.30;99819.58;126624;1099;104862;-78
2020/12/13 08:19:42;;;;;;;36.57;20.83;;;;;;;0.99;83.89;99812.73;126652;1098;104373;-78
2020/12/13 08:22:18;;;;;;;35.50;20.40;;;;;;;1.00;84.55;99824.71;126619;1093;105002;-78
2020/12/13 08:25:05;;;;;;;;;;;;;;;1.01;84.32;99831.56;126719;1093;104833;-78
2020/12/13 08:27:39;;;;;;;38.40;19.60;;;;;;;1.03;84.92;99826.42;126643;1093;104452;-78
2020/12/13 08:30:08;;;;;;;34.97;19.23;;;;;;;1.07;84.53;99831.55;126432;1097;104424;-78
2020/12/13 08:32:37;;;;;;;38.30;20.00;;;;;;;1.11;84.50;99830.71;126411;1093;104436;-78
2020/12/13 08:35:19;;;;;;;38.53;20.60;;;;;;;1.12;84.54;99832.42;126692;1093;104512;-78
2020/12/13 08:37:58;;;;;;;35.83;20.30;;;;;;;1.14;84.23;99833.27;126666;1093;104489;-77
2020/12/13 08:40:53;;;;;;;33.03;18.80;;;;;;;1.13;84.27;99843.55;126695;1093;104500;-78
2020/12/13 08:43:22;;;;;;;38.15;20.65;;;;;;;1.12;84.51;99837.56;126614;1099;106252;-78
2020/12/13 08:45:56;;;;;;;40.00;21.57;;;;;;;1.14;84.59;99838.41;126397;1098;104448;-78
2020/12/13 08:48:25;;;;;;;37.00;21.50;;;;;;;1.12;84.59;99840.13;126689;1098;104968;-78
2020/12/13 08:51:09;;;;;;;36.20;21.07;;;;;;;1.13;84.11;99843.55;126688;1098;104363;-78
2020/12/13 08:53:37;;;;;;;40.17;21.57;;;;;;;1.12;84.20;99852.11;126696;1093;104501;-78
2020/12/13 08:56:07;;;;;;;42.73;22.53;;;;;;;1.08;84.35;99850.41;126430;1099;104567;-78
2020/12/13 08:59:02;;;;;;;39.43;21.40;;;;;;;1.06;84.38;99846.95;126367;1099;104464;-78
2020/12/13 09:01:38;;;;;;;36.83;21.77;;;;;;;1.03;84.38;99852.95;126531;1093;104437;-79
2020/12/13 09:04:21;;;;;;;41.50;22.65;;;;;;;1.01;84.15;99849.53;126428;1096;104500;-79
2020/12/13 09:06:53;;;;;;;44.43;22.90;;;;;;;1.00;84.55;99847.83;126331;1093;104452;-77
2020/12/13 09:09:21;;;;;;;41.57;22.57;;;;;;;1.00;84.18;99847.83;126438;1093;104401;-79
2020/12/13 09:11:49;;;;;;;41.90;22.33;;;;;;;1.00;84.37;99852.96;126653;1093;104439;-78
2020/12/13 09:14:34;;;;;;;42.50;22.50;;;;;;;1.00;84.29;99855.53;126586;1099;104429;-78
2020/12/13 09:17:02;;;;;;;43.27;22.67;;;;;;;0.98;84.16;99854.67;126755;1098;104481;-78
2020/12/13 09:19:29;;;;;;;41.30;23.03;;;;;;;0.98;84.22;99858.95;126590;1093;104461;-78
2020/12/13 09:21:59;;;;;;;40.63;22.67;;;;;;;0.99;84.30;99856.38;126660;1093;104563;-78
2020/12/13 09:24:29;;;;;;;46.93;24.80;;;;;;;0.99;84.47;99863.23;126404;1093;104502;-78
2020/12/13 09:27:00;;;;;;;47.70;24.77;;;;;;;0.97;84.20;99862.38;126695;1093;104455;-77
2020/12/13 09:29:29;;;;;;;41.80;22.23;;;;;;;0.92;84.25;99852.11;126637;1098;104371;-77
2020/12/13 09:31:57;;;;;;;45.67;23.13;;;;;;;0.94;84.14;99852.11;126662;1098;105033;-77
2020/12/13 09:34:24;;;;;;;46.70;24.17;;;;;;;0.98;84.17;99853.82;126596;1094;104465;-77
2020/12/13 09:36:52;;;;;;;44.57;24.63;;;;;;;0.99;84.31;99855.53;126519;1093;104432;-78
2020/12/13 09:39:29;;;;;;;;;;;;;;;0.99;84.19;99861.52;126488;1100;104423;-78
2020/12/13 09:41:57;;;;;;;41.30;21.93;;;;;;;0.98;84.28;99856.39;126519;1100;104511;-78
2020/12/13 09:44:25;;;;;;;44.57;23.77;;;;;;;0.98;84.03;99859.81;126460;1098;104500;-77
2020/12/13 09:46:57;;;;;;;43.47;23.83;;;;;;;0.99;84.38;99855.53;126622;1098;104249;-78
2020/12/13 09:49:27;;;;;;;43.50;24.47;;;;;;;0.98;83.93;99864.95;126475;1093;104471;-79
2020/12/13 09:51:59;;;;;;;40.40;22.40;;;;;;;0.98;84.06;99852.11;126662;1098;104490;-78
2020/12/13 09:54:27;;;;;;;39.80;23.27;;;;;;;0.98;83.88;99859.81;126635;1099;104493;-79
2020/12/13 09:56:54;;;;;;;42.93;23.80;;;;;;;0.98;83.75;99862.38;126516;1099;103850;-78
2020/12/13 09:59:22;;;;;;;48.37;25.43;;;;;;;0.98;83.65;99864.09;126328;1093;104809;-79
2020/12/13 10:01:49;;;;;;;40.87;23.13;;;;;;;0.97;83.34;99858.10;126682;1093;104449;-78
2020/12/13 10:04:19;;;;;;;42.97;24.87;;;;;;;0.98;83.58;99857.24;126415;1099;104545;-79
2020/12/13 10:09:21;;;;;;;46.10;27.10;;;;;;;0.99;83.67;99868.37;126638;1093;103122;-80
2020/12/13 10:11:49;;;;;;;42.13;23.60;;;;;;;1.00;83.38;99857.23;126652;1093;104400;-78
2020/12/13 10:14:16;;;;;;;41.33;24.27;;;;;;;1.00;83.32;99862.38;126459;1098;104983;-79
2020/12/13 10:16:44;;;;;;;43.13;25.53;;;;;;;1.01;83.19;99854.67;126680;1093;104477;-78
2020/12/13 10:19:12;;;;;;;44.13;26.23;;;;;;;1.00;82.76;99852.96;126576;1098;103320;-79
2020/12/13 10:21:39;;;;;;;37.67;20.83;;;;;;;0.99;82.53;99851.25;126411;1093;104531;-79
2020/12/13 10:24:07;;;;;;;39.60;22.50;;;;;;;1.00;82.82;99849.53;126685;1093;104906;-78
2020/12/13 10:26:37;;;;;;;42.77;23.27;;;;;;;1.04;82.74;99852.09;126378;1099;104373;-77
2020/12/13 10:29:06;;;;;;;44.17;26.27;;;;;;;1.07;82.53;99849.52;126743;1093;104311;-78
2020/12/13 10:31:36;;;;;;;41.80;24.60;;;;;;;1.06;82.72;99847.81;126583;1093;105553;-78
2020/12/13 10:34:07;;;;;;;45.40;25.77;;;;;;;1.05;82.45;99846.10;126648;1093;103414;-77
2020/12/13 10:36:36;;;;;;;51.43;28.47;;;;;;;1.06;82.56;99852.95;126351;1093;104532;-78
2020/12/13 10:39:07;;;;;;;55.13;31.47;;;;;;;1.03;82.24;99852.95;126664;1093;104426;-78
2020/12/13 10:41:34;;;;;;;41.10;23.37;;;;;;;1.00;82.42;99854.67;126416;1093;104428;-78
2020/12/13 10:44:02;;;;;;;42.67;24.57;;;;;;;0.98;82.51;99844.41;126739;1093;104475;-77
2020/12/13 10:46:29;;;;;;;34.60;21.07;;;;;;;0.98;82.54;99841.83;126399;1100;104400;-78
2020/12/13 10:48:57;;;;;;;37.07;20.30;;;;;;;0.97;82.55;99840.13;126693;1093;104523;-77
2020/12/13 10:51:24;;;;;;;36.57;21.13;;;;;;;0.95;82.45;99839.27;126638;1093;104529;-79
2020/12/13 10:53:52;;;;;;;40.10;23.87;;;;;;;0.95;82.48;99841.84;126468;1093;104894;-77
2020/12/13 10:56:19;;;;;;;38.13;21.47;;;;;;;0.96;82.77;99840.98;126413;1100;104477;-77
2020/12/13 10:58:46;;;;;;;38.53;22.47;;;;;;;0.98;82.42;99839.27;126688;1093;104564;-78
2020/12/13 11:01:13;;;;;;;34.30;20.13;;;;;;;0.98;82.60;99836.70;126305;1093;103344;-77
2020/12/13 11:03:42;;;;;;;39.08;23.07;;;;;;;0.99;82.36;99835.84;126691;1098;104465;-77
2020/12/13 11:06:10;;;;;;;38.97;22.37;;;;;;;1.00;82.46;99836.70;126647;1098;104401;-77
2020/12/13 11:08:37;;;;;;;34.55;19.82;;;;;;;0.99;82.45;99832.42;126363;1100;104421;-78
2020/12/13 11:11:05;;;;;;;36.77;21.60;;;;;;;0.95;82.53;99839.27;126637;1093;104384;-78
2020/12/13 11:13:34;;;;;;;40.43;23.53;;;;;;;0.93;82.56;99835.00;126477;1098;104567;-77
2020/12/13 11:16:02;;;;;;;36.33;22.63;;;;;;;0.93;82.73;99830.72;126702;1098;104442;-78
2020/12/13 11:18:34;;;;;;;41.87;23.63;;;;;;;0.92;82.71;99836.71;126601;1093;104376;-77
2020/12/13 11:21:03;;;;;;;38.27;23.67;;;;;;;0.94;82.84;99835.00;126706;1093;104420;-78
2020/12/13 11:23:31;;;;;;;41.00;23.43;;;;;;;0.92;82.60;99836.71;126682;1093;104474;-78
2020/12/13 11:25:58;;;;;;;42.63;24.77;;;;;;;0.91;82.84;99842.70;126384;1100;104512;-78
2020/12/13 11:28:27;;;;;;;40.27;23.10;;;;;;;0.93;82.84;99847.84;126329;1096;104455;-78
2020/12/13 11:30:55;;;;;;;32.83;19.40;;;;;;;0.91;82.66;99852.97;126490;1099;104420;-77